Time;durP1;ratioP1;P1;durP2;ratioP2;P2;SDS_P1;SDS_P2;PMS_P1;PMS_P2;Temp;Humidity;BMP_temperature;BMP_pressure;BME280_temperature;BME280_humidity;BME280_pressure;Samples;Min_cycle;Max_cycle;Signal;HPM_P1;HPM_P2
2023/08/10 00:00:47;;;;;;;3.85;1.55;;;;;;;16.84;57.07;100242.91;4955409;29;20062;-83
2023/08/10 00:03:13;;;;;;;5.20;1.90;;;;;;;16.82;57.38;100241.34;4936626;28;20134;-80
2023/08/10 00:05:40;;;;;;;7.47;1.70;;;;;;;16.79;57.26;100243.25;4954732;29;20039;-80
2023/08/10 00:08:07;;;;;;;6.55;1.92;;;;;;;16.77;57.41;100242.53;4954755;29;20047;-77
2023/08/10 00:10:33;;;;;;;8.05;1.50;;;;;;;16.75;57.31;100241.78;4954727;28;20054;-80
2023/08/10 00:13:00;;;;;;;3.92;1.38;;;;;;;16.74;57.33;100247.25;4955053;29;20090;-80
2023/08/10 00:15:26;;;;;;;7.65;1.65;;;;;;;16.71;57.48;100250.13;4953433;28;20142;-79
2023/08/10 00:17:53;;;;;;;4.30;2.03;;;;;;;16.69;57.65;100255.56;4954252;29;20110;-80
2023/08/10 00:20:20;;;;;;;8.75;1.92;;;;;;;16.68;57.57;100248.53;4954750;29;20051;-77
2023/08/10 00:22:46;;;;;;;3.20;1.33;;;;;;;16.66;57.73;100246.00;4937708;29;20138;-79
2023/08/10 00:25:13;;;;;;;6.43;1.83;;;;;;;16.65;57.81;100256.75;4937166;29;20074;-79
2023/08/10 00:27:39;;;;;;;4.00;1.92;;;;;;;16.63;57.87;100254.19;4937109;29;20082;-79
2023/08/10 00:30:07;;;;;;;6.75;2.30;;;;;;;16.61;58.01;100250.81;4954806;29;20051;-79
2023/08/10 00:32:34;;;;;;;5.32;2.40;;;;;;;16.60;58.10;100251.75;4954655;29;20102;-78
2023/08/10 00:35:00;;;;;;;3.67;1.38;;;;;;;16.59;58.17;100246.59;4954669;29;20058;-79
2023/08/10 00:37:27;;;;;;;6.10;2.20;;;;;;;16.57;58.12;100251.16;4954342;29;20484;-78
2023/08/10 00:39:53;;;;;;;3.35;1.27;;;;;;;16.56;58.25;100247.63;4954834;29;20051;-79
2023/08/10 00:42:20;;;;;;;3.67;1.50;;;;;;;16.53;58.22;100251.38;4937347;29;20543;-79
2023/08/10 00:44:46;;;;;;;6.22;2.20;;;;;;;16.52;58.39;100252.34;4954656;29;20134;-79
2023/08/10 00:47:14;;;;;;;5.47;1.95;;;;;;;16.51;58.66;100257.75;4954212;29;20472;-78
2023/08/10 00:49:41;;;;;;;6.25;1.65;;;;;;;16.51;58.59;100261.28;4954556;29;20054;-80
2023/08/10 00:52:07;;;;;;;4.32;1.52;;;;;;;16.50;58.26;100259.59;4954285;29;20082;-78
2023/08/10 00:54:34;;;;;;;3.25;1.50;;;;;;;16.47;58.26;100257.16;4954384;29;20126;-78
2023/08/10 00:57:05;;;;;;;7.03;2.30;;;;;;;16.43;58.85;100261.00;4952386;28;20083;-79
2023/08/10 00:59:33;;;;;;;6.95;2.03;;;;;;;16.42;58.75;100260.13;4954380;29;20049;-80
2023/08/10 01:01:59;;;;;;;6.40;2.05;;;;;;;16.41;59.00;100260.28;4954029;29;20107;-79
2023/08/10 01:04:26;;;;;;;3.97;1.75;;;;;;;16.40;58.94;100258.56;4954558;29;20057;-79
2023/08/10 01:07:02;;;;;;;3.45;1.58;;;;;;;16.36;59.41;100257.94;4936798;29;20082;-79
2023/08/10 01:09:47;;;;;;;5.55;2.15;;;;;;;16.37;59.32;100261.47;4937229;29;20102;-79
2023/08/10 01:12:31;;;;;;;5.97;1.90;;;;;;;16.38;59.69;100260.50;4936852;29;20043;-79
2023/08/10 01:15:15;;;;;;;4.47;1.60;;;;;;;16.36;59.23;100257.94;4952768;29;20548;-79
2023/08/10 01:17:51;;;;;;;4.60;1.85;;;;;;;16.39;59.17;100264.84;4952480;29;20063;-79
2023/08/10 01:20:23;;;;;;;6.85;1.90;;;;;;;16.38;59.35;100263.16;4935384;29;20049;-79
2023/08/10 01:23:17;;;;;;;4.47;1.73;;;;;;;16.35;59.44;100260.72;4953339;29;20054;-78
2023/08/10 01:25:43;;;;;;;;;;;;;;;16.36;58.54;100257.94;4954261;29;20043;-78
2023/08/10 01:28:14;;;;;;;3.47;1.55;;;;;;;16.42;59.01;100256.66;4936519;29;19919;-78
2023/08/10 01:30:43;;;;;;;5.93;1.92;;;;;;;16.38;59.44;100265.81;4932537;29;20043;-79
2023/08/10 01:33:10;;;;;;;7.18;1.92;;;;;;;16.36;59.64;100259.75;4953367;28;20094;-78
2023/08/10 01:35:37;;;;;;;7.50;2.50;;;;;;;16.35;59.55;100261.56;4953589;29;20421;-80
2023/08/10 01:38:04;;;;;;;3.80;1.88;;;;;;;16.35;59.51;100266.03;4953242;28;20090;-79
2023/08/10 01:40:32;;;;;;;5.63;2.13;;;;;;;16.33;59.60;100262.66;4953286;29;20040;-79
2023/08/10 01:42:59;;;;;;;8.45;2.28;;;;;;;16.32;59.60;100263.56;4935861;29;20055;-79
2023/08/10 01:45:25;;;;;;;3.58;2.30;;;;;;;16.32;60.12;100271.53;4953722;29;20079;-78
2023/08/10 01:47:57;;;;;;;6.18;1.80;;;;;;;16.30;59.80;100270.81;4953019;29;20469;-78
2023/08/10 01:50:26;;;;;;;3.60;1.80;;;;;;;16.29;59.95;100267.31;4953590;29;20062;-80
2023/08/10 01:52:56;;;;;;;6.22;2.10;;;;;;;16.28;60.16;100266.47;4953312;29;20480;-79
2023/08/10 01:55:23;;;;;;;4.80;2.35;;;;;;;16.28;59.92;100268.28;4953364;29;20086;-79
2023/08/10 01:57:50;;;;;;;7.10;2.15;;;;;;;16.27;59.93;100261.28;4953043;29;20090;-79
2023/08/10 02:00:16;;;;;;;7.95;2.60;;;;;;;16.26;59.99;100267.56;4953237;29;20531;-78
2023/08/10 02:02:43;;;;;;;4.35;2.05;;;;;;;16.25;59.88;100268.50;4953436;29;20134;-78
2023/08/10 02:05:11;;;;;;;6.07;2.10;;;;;;;16.23;60.23;100271.25;4936237;29;20047;-80
2023/08/10 02:07:38;;;;;;;5.25;2.00;;;;;;;16.23;60.28;100279.22;4953022;29;20047;-79
2023/08/10 02:10:05;;;;;;;5.47;2.15;;;;;;;16.24;60.43;100272.13;4953081;29;20118;-79
2023/08/10 02:12:32;;;;;;;4.85;1.90;;;;;;;16.23;60.29;100287.19;4936076;29;20045;-79
2023/08/10 02:14:59;;;;;;;7.90;2.53;;;;;;;16.23;60.68;100287.19;4936086;29;20055;-77
2023/08/10 02:17:28;;;;;;;7.93;2.03;;;;;;;16.24;60.65;100280.94;4952931;29;20043;-79
2023/08/10 02:19:56;;;;;;;4.25;2.13;;;;;;;16.26;61.07;100280.84;4953145;29;20055;-79
2023/08/10 02:22:22;;;;;;;7.68;1.80;;;;;;;16.28;61.00;100273.59;4953017;29;20051;-79
2023/08/10 02:24:49;;;;;;;9.15;2.33;;;;;;;16.32;61.03;100276.88;4952887;29;20102;-79
2023/08/10 02:27:15;;;;;;;4.85;1.95;;;;;;;16.34;61.24;100277.63;4952608;29;20080;-79
2023/08/10 02:29:42;;;;;;;4.85;2.00;;;;;;;16.37;61.13;100280.88;4952567;29;20050;-79
2023/08/10 02:32:08;;;;;;;5.78;2.50;;;;;;;16.39;61.46;100276.31;4952636;29;20451;-79
2023/08/10 02:34:35;;;;;;;8.50;2.65;;;;;;;16.44;61.55;100277.78;4935539;29;20054;-79
2023/08/10 02:37:02;;;;;;;5.20;2.30;;;;;;;16.47;61.39;100281.06;4952526;29;20070;-79
2023/08/10 02:39:28;;;;;;;4.25;2.20;;;;;;;16.49;61.40;100278.28;4952773;29;20143;-79
2023/08/10 02:41:55;;;;;;;3.35;1.80;;;;;;;16.52;61.31;100278.06;4952668;29;20103;-79
2023/08/10 02:44:22;;;;;;;6.13;2.42;;;;;;;16.54;61.28;100279.66;4952761;29;20436;-80
2023/08/10 02:46:48;;;;;;;4.65;1.90;;;;;;;16.56;61.01;100271.53;4952654;29;20054;-79
2023/08/10 02:49:15;;;;;;;4.40;2.30;;;;;;;16.57;60.99;100275.06;4954068;28;20043;-77
2023/08/10 02:51:42;;;;;;;6.70;2.60;;;;;;;16.57;61.01;100281.25;4954444;28;20051;-78
2023/08/10 02:54:08;;;;;;;5.65;2.78;;;;;;;16.57;60.82;100272.41;4965713;28;20054;-78
2023/08/10 02:56:34;;;;;;;5.90;2.08;;;;;;;16.56;60.70;100276.88;4974366;28;20053;-79
2023/08/10 02:59:01;;;;;;;7.68;2.70;;;;;;;16.56;61.08;100278.69;4975536;28;20043;-80
2023/08/10 03:01:28;;;;;;;5.45;2.45;;;;;;;16.54;60.94;100279.66;4975782;28;20138;-80
2023/08/10 03:03:54;;;;;;;4.55;2.13;;;;;;;16.53;60.89;100275.28;4958683;28;20053;-79
2023/08/10 03:06:21;;;;;;;6.43;2.83;;;;;;;16.52;60.85;100281.56;4975696;28;20043;-79
2023/08/10 03:08:47;;;;;;;9.18;2.65;;;;;;;16.52;61.10;100278.06;4975556;28;20061;-78
2023/08/10 03:11:14;;;;;;;5.05;2.50;;;;;;;16.51;61.02;100289.66;4975710;28;20458;-80
2023/08/10 03:13:40;;;;;;;6.32;2.35;;;;;;;16.50;61.02;100291.47;4958558;28;20069;-78
2023/08/10 03:16:07;;;;;;;5.60;2.50;;;;;;;16.50;61.22;100290.63;4975832;28;20043;-76
2023/08/10 03:18:33;;;;;;;8.95;2.28;;;;;;;16.48;61.08;100285.41;4975388;28;20089;-79
2023/08/10 03:21:00;;;;;;;5.53;2.15;;;;;;;16.49;61.18;100283.63;4975647;28;20043;-79
2023/08/10 03:23:27;;;;;;;6.45;2.22;;;;;;;16.48;61.04;100287.25;4975601;28;20050;-78
2023/08/10 03:25:53;;;;;;;5.50;2.58;;;;;;;16.47;61.46;100291.69;4975346;28;20050;-79
2023/08/10 03:28:20;;;;;;;7.05;2.38;;;;;;;16.47;61.55;100291.69;4975410;28;20469;-79
2023/08/10 03:30:47;;;;;;;5.25;2.78;;;;;;;16.48;61.40;100297.88;4972949;28;20606;-76
2023/08/10 03:33:14;;;;;;;6.13;2.05;;;;;;;16.46;61.27;100297.97;4975208;28;20133;-79
2023/08/10 03:35:40;;;;;;;3.67;1.92;;;;;;;16.45;61.46;100301.56;4975063;28;20109;-79
2023/08/10 03:38:07;;;;;;;6.82;2.20;;;;;;;16.44;61.25;100302.53;4974278;28;20051;-80
2023/08/10 03:40:33;;;;;;;8.02;2.60;;;;;;;16.41;61.17;100310.75;4975196;28;20045;-79
2023/08/10 03:43:00;;;;;;;7.88;2.67;;;;;;;16.39;61.37;100302.03;4974480;28;20109;-78
2023/08/10 03:45:26;;;;;;;7.88;2.63;;;;;;;16.37;61.32;100298.66;4957589;28;20097;-79
2023/08/10 03:47:54;;;;;;;7.68;2.30;;;;;;;16.35;61.21;100305.88;4974609;28;20101;-80
2023/08/10 03:50:20;;;;;;;6.45;2.50;;;;;;;16.33;61.37;100305.16;4975179;28;20462;-80
2023/08/10 03:52:47;;;;;;;8.82;2.47;;;;;;;16.31;61.49;100312.38;4974870;28;20050;-79
2023/08/10 03:55:14;;;;;;;6.93;2.78;;;;;;;16.28;61.70;100308.97;4957844;28;20058;-79
2023/08/10 03:57:41;;;;;;;6.03;3.05;;;;;;;16.27;62.05;100307.25;4974560;28;20051;-78
2023/08/10 04:00:10;;;;;;;5.93;2.40;;;;;;;16.28;61.97;100303.66;4973933;28;20392;-79
2023/08/10 04:02:36;;;;;;;7.57;2.55;;;;;;;16.26;62.01;100302.91;4974406;28;20078;-79
2023/08/10 04:05:06;;;;;;;8.07;2.63;;;;;;;16.28;62.01;100302.81;4974818;28;20039;-79
2023/08/10 04:07:33;;;;;;;8.55;2.85;;;;;;;16.29;62.11;100309.81;4974174;28;20097;-79
2023/08/10 04:10:00;;;;;;;6.72;2.80;;;;;;;16.28;62.42;100311.63;4974768;28;20046;-78
2023/08/10 04:12:27;;;;;;;7.15;2.70;;;;;;;16.30;62.42;100311.53;4974635;28;20047;-79
2023/08/10 04:14:54;;;;;;;5.68;2.28;;;;;;;16.31;62.30;100315.03;4974522;28;20082;-78
2023/08/10 04:17:20;;;;;;;4.45;2.50;;;;;;;16.33;62.24;100321.09;4974126;28;20102;-79
2023/08/10 04:19:47;;;;;;;4.60;2.35;;;;;;;16.33;62.42;100313.13;4957121;28;20373;-78
2023/08/10 04:22:14;;;;;;;8.57;2.92;;;;;;;16.34;62.71;100312.97;4974615;28;20129;-78
2023/08/10 04:24:41;;;;;;;6.85;2.55;;;;;;;16.35;62.69;100311.19;4974545;28;20101;-79
2023/08/10 04:27:07;;;;;;;4.47;2.33;;;;;;;16.37;62.80;100317.25;4957048;28;20086;-80
2023/08/10 04:29:34;;;;;;;5.90;2.25;;;;;;;16.37;62.39;100312.75;4956848;28;20129;-79
2023/08/10 04:32:01;;;;;;;9.43;3.03;;;;;;;16.38;62.74;100313.63;4974194;28;20109;-76
2023/08/10 04:34:27;;;;;;;8.32;2.70;;;;;;;16.39;62.75;100313.53;4974166;28;20129;-76
2023/08/10 04:36:54;;;;;;;8.35;2.85;;;;;;;16.40;62.86;100306.38;4973855;28;20139;-79
2023/08/10 04:39:21;;;;;;;11.88;3.40;;;;;;;16.40;62.47;100311.69;4974136;28;20130;-79
2023/08/10 04:41:47;;;;;;;7.03;2.55;;;;;;;16.40;62.58;100312.56;4973650;28;20081;-79
2023/08/10 04:44:14;;;;;;;4.78;2.40;;;;;;;16.39;62.70;100321.50;4974081;28;20057;-81
2023/08/10 04:46:40;;;;;;;5.45;2.50;;;;;;;16.39;62.92;100318.84;4973409;28;20039;-81
2023/08/10 04:49:07;;;;;;;7.00;2.72;;;;;;;16.40;63.07;100319.66;4973719;28;20043;-79
2023/08/10 04:51:33;;;;;;;5.60;2.97;;;;;;;16.42;63.62;100312.44;4973867;28;20054;-79
2023/08/10 04:54:00;;;;;;;3.67;2.55;;;;;;;16.44;63.28;100318.47;4954622;28;20372;-80
2023/08/10 04:56:26;;;;;;;7.32;2.50;;;;;;;16.47;63.49;100320.06;4973485;28;20046;-79
2023/08/10 04:58:53;;;;;;;7.75;2.78;;;;;;;16.51;63.69;100313.56;4972587;28;20078;-79
2023/08/10 05:01:19;;;;;;;7.22;3.05;;;;;;;16.56;63.73;100321.22;4973629;28;20055;-80
2023/08/10 05:03:46;;;;;;;6.30;3.20;;;;;;;16.60;64.12;100317.38;4954429;28;20480;-79
2023/08/10 05:06:13;;;;;;;6.97;2.60;;;;;;;16.65;64.16;100324.06;4973719;28;20098;-79
2023/08/10 05:08:39;;;;;;;5.97;2.90;;;;;;;16.71;64.05;100322.72;4972545;28;20133;-80
2023/08/10 05:11:06;;;;;;;5.35;2.35;;;;;;;16.77;64.08;100326.75;4949148;29;20126;-79
2023/08/10 05:13:33;;;;;;;8.20;2.80;;;;;;;16.83;64.16;100325.44;4953713;29;20058;-78
2023/08/10 05:15:59;;;;;;;4.53;2.33;;;;;;;16.90;64.25;100332.00;4954026;29;20581;-78
2023/08/10 05:18:26;;;;;;;6.97;2.65;;;;;;;16.96;64.00;100336.03;4953625;29;20484;-77
2023/08/10 05:20:53;;;;;;;6.18;2.38;;;;;;;17.00;64.02;100340.97;4953861;29;20043;-79
2023/08/10 05:23:19;;;;;;;5.05;2.22;;;;;;;17.04;64.10;100342.47;4953940;29;20130;-79
2023/08/10 05:25:46;;;;;;;9.15;2.80;;;;;;;17.10;64.07;100343.84;4936958;29;20047;-76
2023/08/10 05:28:13;;;;;;;7.38;2.80;;;;;;;17.15;64.19;100332.84;4953564;29;20130;-79
2023/08/10 05:30:39;;;;;;;8.40;2.30;;;;;;;17.18;64.35;100338.78;4953937;29;20075;-79
2023/08/10 05:33:06;;;;;;;6.95;2.03;;;;;;;17.23;63.93;100343.75;4936611;29;20109;-79
2023/08/10 05:35:33;;;;;;;6.60;2.53;;;;;;;17.27;63.89;100331.06;4953832;29;20051;-78
2023/08/10 05:37:59;;;;;;;7.45;2.85;;;;;;;17.30;63.65;100336.13;4953475;29;20048;-78
2023/08/10 05:40:26;;;;;;;4.22;2.40;;;;;;;17.32;63.76;100332.41;4953707;29;20074;-78
2023/08/10 05:42:53;;;;;;;7.32;3.15;;;;;;;17.36;63.72;100332.16;4953732;29;20126;-79
2023/08/10 05:45:19;;;;;;;6.20;2.65;;;;;;;17.39;63.79;100334.59;4953542;29;20047;-78
2023/08/10 05:47:46;;;;;;;4.28;2.67;;;;;;;17.42;63.78;100331.72;4953425;29;20130;-79
2023/08/10 05:50:14;;;;;;;8.48;2.90;;;;;;;17.47;64.01;100334.00;4936403;29;20463;-80
2023/08/10 05:52:42;;;;;;;4.10;2.70;;;;;;;17.51;63.91;100336.31;4953462;29;20105;-78
2023/08/10 05:55:09;;;;;;;5.65;2.67;;;;;;;17.56;63.94;100333.28;4936407;29;20059;-78
2023/08/10 05:57:36;;;;;;;5.93;2.67;;;;;;;17.58;63.75;100329.53;4953070;29;20047;-78
2023/08/10 06:00:03;;;;;;;5.82;2.45;;;;;;;17.63;63.72;100333.66;4953510;29;20547;-78
2023/08/10 06:02:30;;;;;;;5.07;3.03;;;;;;;17.66;63.54;100338.75;4953720;29;20510;-78
2023/08/10 06:04:56;;;;;;;6.20;2.55;;;;;;;17.71;63.85;100333.91;4952690;29;20476;-76
2023/08/10 06:07:23;;;;;;;5.43;2.15;;;;;;;17.76;64.08;100341.56;4953391;29;20043;-78
2023/08/10 06:09:49;;;;;;;5.72;2.20;;;;;;;17.80;63.67;100340.34;4953277;29;20480;-78
2023/08/10 06:12:17;;;;;;;5.68;2.63;;;;;;;17.84;63.60;100339.16;4953254;29;20531;-79
2023/08/10 06:14:45;;;;;;;4.25;2.55;;;;;;;17.88;63.73;100345.94;4952952;29;20050;-79
2023/08/10 06:17:12;;;;;;;6.15;2.45;;;;;;;17.93;63.74;100342.88;4935954;29;20051;-79
2023/08/10 06:19:38;;;;;;;6.20;2.63;;;;;;;17.98;63.67;100346.03;4953138;29;20086;-77
2023/08/10 06:22:05;;;;;;;6.85;2.78;;;;;;;18.03;63.72;100348.34;4953084;29;20476;-78
2023/08/10 06:24:32;;;;;;;9.45;2.42;;;;;;;18.07;63.56;100350.66;4952583;28;20197;-78
2023/08/10 06:26:59;;;;;;;4.82;2.08;;;;;;;18.13;63.67;100353.81;4952348;29;20050;-78
2023/08/10 06:29:26;;;;;;;6.45;2.15;;;;;;;18.18;63.24;100357.81;4952657;29;20392;-79
2023/08/10 06:31:53;;;;;;;6.63;2.50;;;;;;;18.22;63.34;100356.59;4935877;29;20542;-78
2023/08/10 06:34:19;;;;;;;4.28;2.42;;;;;;;18.26;63.08;100362.53;4953308;29;20082;-78
2023/08/10 06:36:46;;;;;;;4.57;2.13;;;;;;;18.31;63.13;100365.66;4952799;29;20476;-76
2023/08/10 06:39:12;;;;;;;7.53;2.20;;;;;;;18.35;62.89;100356.44;4953101;29;20448;-79
2023/08/10 06:41:39;;;;;;;5.80;2.20;;;;;;;18.39;62.43;100353.56;4952941;29;20050;-75
2023/08/10 06:44:05;;;;;;;6.43;2.50;;;;;;;18.41;62.62;100357.78;4953120;29;20142;-78
2023/08/10 06:46:32;;;;;;;6.22;2.10;;;;;;;18.42;62.29;100353.28;4952634;29;20098;-78
2023/08/10 06:48:59;;;;;;;4.55;2.13;;;;;;;18.46;62.36;100360.91;4935804;29;20122;-79
2023/08/10 06:51:26;;;;;;;6.85;2.47;;;;;;;18.48;62.44;100361.66;4952965;29;20057;-79
2023/08/10 06:53:52;;;;;;;7.63;2.58;;;;;;;18.51;62.26;100367.69;4952716;29;20039;-78
2023/08/10 06:56:19;;;;;;;6.53;2.33;;;;;;;18.53;62.34;100365.75;4952739;29;20154;-79
2023/08/10 06:59:16;;;;;;;9.35;2.80;;;;;;;18.51;61.53;100370.38;4952916;29;20079;-78
2023/08/10 07:01:45;;;;;;;6.78;2.80;;;;;;;18.58;62.45;100383.06;4953023;29;20048;-78
2023/08/10 07:04:12;;;;;;;5.30;2.08;;;;;;;18.62;62.02;100368.50;4952670;29;20150;-77
2023/08/10 07:06:38;;;;;;;5.53;2.53;;;;;;;18.66;62.33;100371.78;4935442;29;20405;-78
2023/08/10 07:09:05;;;;;;;4.13;2.17;;;;;;;18.70;62.35;100373.25;4952691;29;20130;-79
2023/08/10 07:11:32;;;;;;;3.83;2.00;;;;;;;18.75;62.53;100367.50;4952653;29;20079;-78
2023/08/10 07:13:59;;;;;;;8.50;3.15;;;;;;;18.81;62.43;100369.69;4952845;29;20137;-79
2023/08/10 07:16:25;;;;;;;4.30;2.10;;;;;;;18.86;61.96;100367.50;4952750;29;20133;-79
2023/08/10 07:18:52;;;;;;;3.38;1.98;;;;;;;18.92;62.11;100375.94;4952517;29;20055;-78
2023/08/10 07:21:18;;;;;;;6.35;2.22;;;;;;;18.96;61.87;100369.38;4952678;29;20074;-76
2023/08/10 07:23:46;;;;;;;4.30;2.13;;;;;;;19.01;61.93;100373.38;4935790;29;20059;-76
2023/08/10 07:26:13;;;;;;;5.60;2.40;;;;;;;19.06;61.59;100381.00;4952794;29;20090;-78
2023/08/10 07:28:39;;;;;;;3.45;2.03;;;;;;;19.11;61.18;100377.97;4935433;29;20495;-79
2023/08/10 07:31:06;;;;;;;6.65;2.17;;;;;;;19.15;61.17;100379.41;4935597;29;20047;-78
2023/08/10 07:33:32;;;;;;;9.15;2.50;;;;;;;19.20;61.12;100389.69;4952550;29;20504;-80
2023/08/10 07:35:59;;;;;;;8.15;2.20;;;;;;;19.26;61.96;100373.16;4954754;28;20046;-79
2023/08/10 07:38:26;;;;;;;8.68;2.17;;;;;;;19.34;61.53;100384.06;4939164;29;20047;-79
2023/08/10 07:40:53;;;;;;;3.80;1.63;;;;;;;19.43;61.21;100392.25;4956291;29;20075;-78
2023/08/10 07:43:20;;;;;;;5.53;1.75;;;;;;;19.50;61.34;100388.94;4939064;29;20055;-79
2023/08/10 07:45:47;;;;;;;4.82;2.03;;;;;;;19.61;61.33;100389.81;4956122;29;20130;-77
2023/08/10 07:48:13;;;;;;;10.15;2.75;;;;;;;19.68;61.19;100380.31;4955653;29;20043;-78
2023/08/10 07:50:40;;;;;;;7.93;2.10;;;;;;;19.76;60.98;100391.19;4956122;29;20476;-78
2023/08/10 07:53:06;;;;;;;8.32;1.83;;;;;;;19.85;60.74;100386.88;4956038;29;20039;-79
2023/08/10 07:55:33;;;;;;;6.97;1.85;;;;;;;19.93;60.31;100392.41;4939042;29;20079;-79
2023/08/10 07:58:00;;;;;;;4.50;2.03;;;;;;;20.00;59.88;100390.06;4955545;29;20055;-75
2023/08/10 08:00:26;;;;;;;4.88;1.90;;;;;;;20.07;59.67;100386.88;4955814;29;20046;-77
2023/08/10 08:02:53;;;;;;;5.65;1.63;;;;;;;20.12;59.44;100385.50;4955659;29;20044;-78
2023/08/10 08:05:19;;;;;;;6.20;1.40;;;;;;;20.17;58.86;100383.25;4955924;29;20089;-79
2023/08/10 08:07:46;;;;;;;4.57;1.60;;;;;;;20.21;58.59;100388.31;4955534;29;20051;-79
2023/08/10 08:10:12;;;;;;;5.75;1.55;;;;;;;20.22;58.26;100380.16;4955694;29;20102;-79
2023/08/10 08:12:39;;;;;;;6.60;1.38;;;;;;;20.23;57.98;100378.34;4955682;29;20043;-78
2023/08/10 08:15:06;;;;;;;4.38;1.52;;;;;;;20.23;57.74;100391.72;4955448;29;20070;-78
2023/08/10 08:18:11;;;;;;;5.35;1.52;;;;;;;20.16;57.70;100392.28;4955138;29;20200;-79
2023/08/10 08:20:37;;;;;;;3.90;1.40;;;;;;;20.24;57.79;100396.06;4955460;29;20047;-78
2023/08/10 08:23:04;;;;;;;6.35;1.38;;;;;;;20.22;57.92;100396.22;4955627;29;20049;-79
2023/08/10 08:25:31;;;;;;;4.68;1.23;;;;;;;20.23;57.95;100397.94;4955487;29;20044;-78
2023/08/10 08:27:57;;;;;;;4.70;1.55;;;;;;;20.22;58.07;100398.06;4955017;29;20043;-78
2023/08/10 08:30:26;;;;;;;3.20;1.60;;;;;;;20.22;57.67;100390.88;4955208;29;20051;-78
2023/08/10 08:32:52;;;;;;;5.70;1.50;;;;;;;20.25;58.08;100395.94;4955350;29;20488;-79
2023/08/10 08:35:19;;;;;;;3.70;1.30;;;;;;;20.28;57.81;100394.81;4955171;29;20047;-79
2023/08/10 08:37:46;;;;;;;4.72;1.40;;;;;;;20.33;57.68;100395.25;4954897;29;20047;-78
2023/08/10 08:40:12;;;;;;;2.90;1.25;;;;;;;20.36;58.10;100392.31;4954967;29;20079;-78
2023/08/10 08:42:41;;;;;;;7.88;2.35;;;;;;;20.40;57.68;100399.09;4955262;29;20122;-78
2023/08/10 08:45:08;;;;;;;6.13;1.40;;;;;;;20.43;57.39;100398.84;4955174;29;20448;-77
2023/08/10 08:47:35;;;;;;;6.57;1.50;;;;;;;20.46;57.52;100402.19;4936991;29;20047;-78
2023/08/10 08:50:02;;;;;;;4.50;1.58;;;;;;;20.47;57.45;100406.56;4938038;29;20043;-77
2023/08/10 08:52:30;;;;;;;3.38;1.10;;;;;;;20.51;57.87;100408.84;4954828;29;20511;-78
2023/08/10 08:54:57;;;;;;;5.40;1.55;;;;;;;20.54;57.06;100402.38;4937549;29;20751;-76
2023/08/10 08:57:24;;;;;;;5.05;1.42;;;;;;;20.58;57.15;100411.81;4954514;29;20075;-79
2023/08/10 08:59:50;;;;;;;2.22;1.10;;;;;;;20.63;56.45;100398.03;4954708;29;20043;-78
2023/08/10 09:02:17;;;;;;;3.35;0.90;;;;;;;20.67;55.96;100394.94;4954531;29;20111;-78
2023/08/10 09:04:46;;;;;;;3.42;1.00;;;;;;;20.74;56.95;100397.06;4937948;29;20047;-78
2023/08/10 09:07:13;;;;;;;3.83;1.15;;;;;;;20.81;55.99;100400.88;4937436;29;20094;-78
2023/08/10 09:09:41;;;;;;;9.38;1.42;;;;;;;20.88;55.74;100401.19;4954957;29;20105;-78
2023/08/10 09:12:27;;;;;;;2.60;1.10;;;;;;;20.91;55.02;100396.41;4937608;29;20043;-79
2023/08/10 09:15:03;;;;;;;2.55;1.30;;;;;;;21.00;54.69;100400.06;4937434;29;20571;-79
2023/08/10 09:17:35;;;;;;;2.20;1.00;;;;;;;21.07;55.16;100403.03;4954188;29;20105;-78
2023/08/10 09:20:05;;;;;;;3.30;1.20;;;;;;;21.16;54.84;100394.16;4954249;29;20043;-78
2023/08/10 09:22:37;;;;;;;2.40;1.00;;;;;;;21.20;54.46;100395.56;4954410;29;20055;-78
2023/08/10 09:25:05;;;;;;;3.50;1.02;;;;;;;21.30;55.44;100392.88;4954453;29;20047;-77
2023/08/10 09:27:32;;;;;;;1.75;1.20;;;;;;;21.40;55.00;100389.34;4953932;29;20081;-78
2023/08/10 09:30:02;;;;;;;3.53;1.58;;;;;;;21.50;54.49;100389.34;4954221;29;20051;-80
2023/08/10 09:32:28;;;;;;;3.40;1.27;;;;;;;21.59;55.44;100383.97;4954003;29;20052;-78
2023/08/10 09:34:55;;;;;;;3.15;1.30;;;;;;;21.69;54.66;100377.75;4953962;29;20396;-78
2023/08/10 09:37:24;;;;;;;4.93;1.25;;;;;;;21.78;54.34;100392.13;4953861;29;20047;-79
2023/08/10 09:39:55;;;;;;;6.85;1.50;;;;;;;21.83;54.36;100389.88;4954059;29;20101;-78
2023/08/10 09:42:22;;;;;;;5.10;1.40;;;;;;;21.90;54.19;100379.41;4953822;29;20039;-78
2023/08/10 09:44:51;;;;;;;3.25;1.45;;;;;;;21.92;54.04;100391.66;4953745;29;20043;-75
2023/08/10 09:47:19;;;;;;;4.18;1.23;;;;;;;21.94;54.89;100381.63;4953755;29;20047;-78
2023/08/10 09:49:57;;;;;;;5.82;1.50;;;;;;;21.94;53.60;100389.66;4953963;29;20047;-78
2023/08/10 09:52:25;;;;;;;6.78;1.50;;;;;;;22.02;53.93;100394.31;4953992;29;20456;-78
2023/08/10 09:54:54;;;;;;;4.82;1.55;;;;;;;22.10;53.47;100385.53;4953525;29;20126;-78
2023/08/10 09:57:22;;;;;;;3.97;1.15;;;;;;;22.18;53.43;100393.69;4936155;29;20133;-78
2023/08/10 09:59:51;;;;;;;2.42;1.30;;;;;;;22.30;54.58;100399.69;4953684;28;20047;-78
2023/08/10 10:02:20;;;;;;;3.20;1.50;;;;;;;22.44;54.34;100389.44;4953434;29;20496;-77
2023/08/10 10:04:47;;;;;;;3.70;1.33;;;;;;;22.57;53.48;100389.16;4936453;29;20130;-79
2023/08/10 10:07:19;;;;;;;3.72;1.48;;;;;;;22.68;53.10;100393.44;4953183;29;20039;-78
2023/08/10 10:09:49;;;;;;;3.35;1.15;;;;;;;22.80;52.26;100388.69;4953575;29;20046;-78
2023/08/10 10:12:16;;;;;;;3.50;1.13;;;;;;;22.93;53.32;100389.16;4953440;29;20153;-79
2023/08/10 10:14:45;;;;;;;2.80;1.23;;;;;;;23.08;53.49;100388.63;4953199;29;20483;-78
2023/08/10 10:17:14;;;;;;;4.00;1.55;;;;;;;23.23;53.16;100386.22;4936167;29;20494;-77
2023/08/10 10:19:42;;;;;;;4.00;1.15;;;;;;;23.35;53.02;100397.59;4953392;29;20051;-80
2023/08/10 10:22:10;;;;;;;3.33;1.20;;;;;;;23.45;51.48;100395.69;4953282;29;20094;-78
2023/08/10 10:24:41;;;;;;;3.50;1.27;;;;;;;23.51;51.72;100386.16;4953169;29;20051;-79
2023/08/10 10:27:13;;;;;;;4.93;1.50;;;;;;;23.57;51.39;100385.50;4953074;29;20079;-78
2023/08/10 10:29:48;;;;;;;3.92;1.20;;;;;;;23.64;49.92;100378.50;4953230;29;20058;-78
2023/08/10 10:32:18;;;;;;;2.58;1.00;;;;;;;23.79;51.46;100375.22;4953209;29;20046;-78
2023/08/10 10:34:46;;;;;;;4.60;1.50;;;;;;;23.94;52.42;100378.16;4952981;29;20400;-79
2023/08/10 10:37:13;;;;;;;2.38;1.17;;;;;;;24.13;50.66;100381.63;4952991;29;20138;-79
2023/08/10 10:39:43;;;;;;;2.33;1.10;;;;;;;24.32;51.79;100380.53;4953310;29;20055;-76
2023/08/10 10:42:11;;;;;;;8.48;1.88;;;;;;;24.52;50.57;100380.28;4953185;29;20047;-78
2023/08/10 10:45:08;;;;;;;4.60;1.10;;;;;;;24.68;49.46;100377.63;4953075;29;20051;-78
2023/08/10 10:47:47;;;;;;;4.15;1.52;;;;;;;24.93;50.35;100368.78;4952642;29;20047;-78
2023/08/10 10:50:20;;;;;;;4.30;1.23;;;;;;;25.09;48.74;100366.06;4936296;29;20054;-79
2023/08/10 10:53:01;;;;;;;2.65;1.20;;;;;;;25.22;47.80;100367.41;4953098;29;20043;-78
2023/08/10 10:55:46;;;;;;;3.28;1.13;;;;;;;25.34;48.82;100363.38;4952932;29;20084;-78
2023/08/10 10:58:14;;;;;;;2.63;0.98;;;;;;;25.48;48.42;100359.13;4935877;29;20051;-76
2023/08/10 11:00:43;;;;;;;3.38;1.10;;;;;;;25.55;48.16;100364.69;4936055;29;20061;-78
2023/08/10 11:03:15;;;;;;;3.13;1.27;;;;;;;25.62;48.48;100360.34;4952973;29;20793;-79
2023/08/10 11:05:41;;;;;;;3.60;1.23;;;;;;;25.66;48.73;100355.44;4936159;29;20236;-79
2023/08/10 11:08:08;;;;;;;1.98;0.95;;;;;;;25.69;48.48;100348.84;4935777;29;20054;-76
2023/08/10 11:10:37;;;;;;;2.33;1.00;;;;;;;25.70;47.02;100350.53;4954850;28;20799;-78
2023/08/10 11:13:09;;;;;;;3.53;1.27;;;;;;;25.67;45.52;100348.19;4956830;29;20100;-78
2023/08/10 11:15:38;;;;;;;5.50;1.45;;;;;;;25.66;46.37;100343.78;4956650;29;20440;-79
2023/08/10 11:18:12;;;;;;;1.77;0.93;;;;;;;25.59;46.35;100341.78;4956437;29;20043;-79
2023/08/10 11:20:50;;;;;;;4.45;1.30;;;;;;;25.52;46.11;100343.47;4956570;29;20091;-78
2023/08/10 11:23:17;;;;;;;4.43;1.20;;;;;;;25.55;47.34;100337.72;4956773;29;20082;-79
2023/08/10 11:25:49;;;;;;;2.25;1.00;;;;;;;25.58;46.81;100340.13;4956564;29;20399;-78
2023/08/10 11:28:23;;;;;;;1.80;1.17;;;;;;;25.63;46.69;100339.59;4956258;29;20055;-79